Time;durP1;ratioP1;P1;durP2;ratioP2;P2;SDS_P1;SDS_P2;PMS_P1;PMS_P2;Temp;Humidity;BMP_temperature;BMP_pressure;BME280_temperature;BME280_humidity;BME280_pressure;Samples;Min_cycle;Max_cycle;Signal;HPM_P1;HPM_P2
2021/07/15 00:02:18;;;;;;;0.57;0.57;;;13.60;99.90;;;;;;4979735;28;20058;-91
2021/07/15 00:05:16;;;;;;;0.70;0.70;;;13.60;99.90;;;;;;4972321;28;20089;-88
2021/07/15 00:08:08;;;;;;;7.78;0.70;;;13.60;99.90;;;;;;4992322;28;20209;-88
2021/07/15 00:11:00;;;;;;;3.13;0.47;;;13.50;99.90;;;;;;4991979;28;20034;-88
2021/07/15 00:13:47;;;;;;;1.13;0.50;;;13.60;99.90;;;;;;4990111;28;20348;-88
2021/07/15 00:16:35;;;;;;;3.95;0.50;;;13.50;99.90;;;;;;4992981;28;20154;-87
2021/07/15 00:19:24;;;;;;;3.80;0.50;;;13.60;99.90;;;;;;4994439;28;20113;-89
2021/07/15 00:22:11;;;;;;;1.13;0.30;;;13.50;99.90;;;;;;4999333;28;20066;-89
2021/07/15 00:24:59;;;;;;;0.50;0.40;;;13.50;99.90;;;;;;4991986;28;20156;-88
2021/07/15 00:27:47;;;;;;;0.40;0.40;;;13.50;99.90;;;;;;4979993;28;20113;-88
2021/07/15 00:30:35;;;;;;;0.38;0.38;;;13.50;99.90;;;;;;5002182;28;20134;-90
2021/07/15 00:33:24;;;;;;;2.10;0.40;;;13.50;99.90;;;;;;4993000;28;20047;-88
2021/07/15 00:36:12;;;;;;;1.00;0.40;;;13.50;99.90;;;;;;4999730;28;20205;-89
2021/07/15 00:38:59;;;;;;;2.67;0.40;;;13.50;99.90;;;;;;4983169;28;20145;-91
2021/07/15 00:41:47;;;;;;;2.00;0.50;;;13.50;99.90;;;;;;5006306;28;20188;-91
2021/07/15 00:44:34;;;;;;;0.73;0.50;;;13.40;99.90;;;;;;4991597;28;20072;-90
2021/07/15 00:47:22;;;;;;;1.67;0.50;;;13.40;99.90;;;;;;4983284;28;20074;-91
2021/07/15 00:50:10;;;;;;;5.00;0.52;;;13.40;99.90;;;;;;4981482;28;20130;-92
2021/07/15 00:53:01;;;;;;;2.83;0.40;;;13.40;99.90;;;;;;4973063;28;20143;-91
2021/07/15 00:55:48;;;;;;;4.50;0.63;;;13.40;99.90;;;;;;4979257;28;20054;-91
2021/07/15 00:58:36;;;;;;;1.77;0.50;;;13.40;99.90;;;;;;4988579;28;20136;-90
2021/07/15 01:01:24;;;;;;;3.60;0.63;;;13.40;99.90;;;;;;4992222;28;20050;-91
2021/07/15 01:04:11;;;;;;;0.52;0.40;;;13.30;99.90;;;;;;4991177;28;20050;-88
2021/07/15 01:06:58;;;;;;;0.93;0.52;;;13.30;99.90;;;;;;4965524;28;20133;-91
2021/07/15 01:09:46;;;;;;;3.78;0.60;;;13.30;99.90;;;;;;4991806;28;20070;-91
2021/07/15 01:13:12;;;;;;;0.82;0.50;;;13.30;99.90;;;;;;4978811;28;20046;-89
2021/07/15 01:16:19;;;;;;;2.78;0.40;;;13.30;99.90;;;;;;4995415;28;20062;-90
2021/07/15 01:19:40;;;;;;;0.60;0.60;;;13.30;99.90;;;;;;4995182;28;20054;-88
2021/07/15 01:23:01;;;;;;;0.60;0.40;;;13.30;99.90;;;;;;4987738;28;20038;-91
2021/07/15 01:25:52;;;;;;;0.90;0.30;;;13.20;99.90;;;;;;4993738;28;20077;-91
2021/07/15 01:29:10;;;;;;;0.43;0.43;;;13.20;99.90;;;;;;4982842;28;20422;-89
2021/07/15 01:32:03;;;;;;;1.75;0.63;;;13.20;99.90;;;;;;4997002;28;20147;-90
2021/07/15 01:34:53;;;;;;;0.77;0.40;;;13.20;99.90;;;;;;4996122;28;20073;-90
2021/07/15 01:37:44;;;;;;;2.45;0.50;;;13.20;99.90;;;;;;4986049;28;20054;-89
2021/07/15 01:40:39;;;;;;;1.65;0.40;;;13.20;99.90;;;;;;4996257;28;20089;-90
2021/07/15 01:43:56;;;;;;;4.18;0.50;;;13.10;99.90;;;;;;4977289;28;20062;-89
2021/07/15 01:46:43;;;;;;;3.65;0.57;;;13.10;99.90;;;;;;4984185;28;20476;-87
2021/07/15 01:49:31;;;;;;;0.50;0.50;;;13.10;99.90;;;;;;4990586;28;20483;-89
2021/07/15 01:52:18;;;;;;;0.55;0.50;;;13.00;99.90;;;;;;4985720;28;20050;-87
2021/07/15 01:55:06;;;;;;;0.40;0.40;;;13.10;99.90;;;;;;4989409;28;20096;-90
2021/07/15 01:57:55;;;;;;;1.20;0.50;;;13.00;99.90;;;;;;4984085;28;20101;-87
2021/07/15 02:00:44;;;;;;;0.70;0.45;;;13.00;99.90;;;;;;4987664;28;20074;-89
2021/07/15 02:03:34;;;;;;;1.30;0.40;;;12.90;99.90;;;;;;4983287;28;20095;-87
2021/07/15 02:06:22;;;;;;;0.90;0.43;;;13.00;99.90;;;;;;4992054;28;20073;-87
2021/07/15 02:09:13;;;;;;;0.93;0.30;;;13.00;99.90;;;;;;4991390;28;20124;-88
2021/07/15 02:12:03;;;;;;;2.30;0.30;;;13.00;99.90;;;;;;4986599;28;20553;-86
2021/07/15 02:14:53;;;;;;;1.63;0.52;;;13.00;99.90;;;;;;4990190;28;20479;-89
2021/07/15 02:17:43;;;;;;;6.97;0.50;;;13.00;99.90;;;;;;4994221;28;20050;-88
2021/07/15 02:20:32;;;;;;;0.65;0.60;;;12.90;99.90;;;;;;4987410;28;20128;-89
2021/07/15 02:23:21;;;;;;;0.80;0.50;;;13.00;99.90;;;;;;4987948;28;20070;-86
2021/07/15 02:26:11;;;;;;;2.08;0.70;;;12.90;99.90;;;;;;4976333;28;20038;-88
2021/07/15 02:28:58;;;;;;;1.52;0.73;;;12.90;99.90;;;;;;4989733;28;20046;-86
2021/07/15 02:31:58;;;;;;;1.35;0.40;;;12.90;99.90;;;;;;4983503;28;20113;-90
2021/07/15 02:35:14;;;;;;;1.48;0.40;;;12.90;99.90;;;;;;4995935;28;20140;-89
2021/07/15 02:38:04;;;;;;;0.40;0.40;;;12.90;99.90;;;;;;4986186;28;20046;-88
2021/07/15 02:40:54;;;;;;;2.25;0.30;;;12.80;99.90;;;;;;4977698;28;20488;-88
2021/07/15 02:43:42;;;;;;;5.85;0.60;;;12.80;99.90;;;;;;4974046;28;20046;-89
2021/07/15 02:46:30;;;;;;;2.83;0.45;;;12.80;99.90;;;;;;4985807;28;20038;-91
2021/07/15 02:49:17;;;;;;;4.75;0.50;;;12.80;99.90;;;;;;4991645;28;20090;-89
2021/07/15 02:52:04;;;;;;;1.52;0.30;;;12.90;99.90;;;;;;4976205;28;20146;-85
2021/07/15 02:54:52;;;;;;;2.38;0.50;;;12.90;99.90;;;;;;4978321;28;20125;-88
2021/07/15 02:57:42;;;;;;;0.30;0.30;;;12.90;99.90;;;;;;4992996;28;20073;-87
2021/07/15 03:00:52;;;;;;;0.98;0.40;;;12.90;99.90;;;;;;4993333;28;20189;-87
2021/07/15 03:04:11;;;;;;;5.20;0.70;;;12.90;99.90;;;;;;4988496;28;20689;-88
2021/07/15 03:07:03;;;;;;;1.50;0.43;;;13.00;99.90;;;;;;4994800;28;20109;-87
2021/07/15 03:09:54;;;;;;;0.55;0.43;;;13.00;99.90;;;;;;4986073;28;20042;-85
2021/07/15 03:12:42;;;;;;;0.47;0.47;;;13.00;99.90;;;;;;5002978;28;20074;-86
2021/07/15 03:15:34;;;;;;;1.20;0.40;;;13.00;99.90;;;;;;4993103;28;20058;-86
2021/07/15 03:18:26;;;;;;;0.40;0.40;;;13.00;99.90;;;;;;4992909;28;20052;-85
2021/07/15 03:21:18;;;;;;;1.45;0.50;;;13.00;99.90;;;;;;4992894;28;20229;-87
2021/07/15 03:24:10;;;;;;;2.63;0.50;;;13.00;99.90;;;;;;4985678;28;20042;-88
2021/07/15 03:27:03;;;;;;;5.90;0.50;;;13.00;99.90;;;;;;4992676;28;20193;-85
2021/07/15 03:29:52;;;;;;;1.98;0.40;;;13.00;99.90;;;;;;4992707;28;20181;-89
2021/07/15 03:32:47;;;;;;;0.80;0.35;;;13.00;99.90;;;;;;4980609;28;20054;-85
2021/07/15 03:35:36;;;;;;;1.05;0.30;;;13.00;99.90;;;;;;4991865;28;20120;-86
2021/07/15 03:38:26;;;;;;;4.68;0.40;;;13.00;99.90;;;;;;4977947;28;20517;-88
2021/07/15 03:41:15;;;;;;;2.47;0.50;;;13.00;99.90;;;;;;4993273;28;20061;-89
2021/07/15 03:44:03;;;;;;;1.33;0.40;;;13.00;99.90;;;;;;4993109;28;20129;-88
2021/07/15 03:46:51;;;;;;;4.20;0.40;;;13.00;99.90;;;;;;4978846;28;20046;-87
2021/07/15 03:49:42;;;;;;;3.45;0.50;;;13.00;99.90;;;;;;4993986;28;20392;-87
2021/07/15 03:52:29;;;;;;;6.03;0.43;;;13.00;99.90;;;;;;4995006;28;20348;-88
2021/07/15 03:55:24;;;;;;;9.93;0.50;;;13.10;99.90;;;;;;4990999;28;20117;-88
2021/07/15 03:58:13;;;;;;;2.60;0.68;;;13.10;99.90;;;;;;4988139;28;20128;-87
2021/07/15 04:01:03;;;;;;;2.15;0.73;;;13.10;99.90;;;;;;4975348;28;20053;-88
2021/07/15 04:03:54;;;;;;;1.17;0.52;;;13.10;99.90;;;;;;4996127;28;20043;-87
2021/07/15 04:06:42;;;;;;;0.90;0.30;;;13.10;99.90;;;;;;4999119;28;20050;-88
2021/07/15 04:09:33;;;;;;;5.05;0.47;;;13.20;99.90;;;;;;4997966;28;20066;-88
2021/07/15 04:12:22;;;;;;;1.75;0.40;;;13.20;99.90;;;;;;4993156;28;20133;-87
2021/07/15 04:15:13;;;;;;;3.72;0.50;;;13.20;99.90;;;;;;4992431;28;20060;-87
2021/07/15 04:18:03;;;;;;;1.48;0.50;;;13.30;99.90;;;;;;4990375;28;20069;-87
2021/07/15 04:20:51;;;;;;;4.18;0.50;;;13.30;99.90;;;;;;4982564;28;20117;-89
2021/07/15 04:24:07;;;;;;;0.40;0.40;;;13.30;99.90;;;;;;4978729;28;20462;-87
2021/07/15 04:48:20;;;;;;;1.08;0.30;;;13.50;99.90;;;;;;4920194;29;20020;-87
2021/07/15 04:51:13;;;;;;;4.15;0.80;;;13.50;99.90;;;;;;4945182;28;20047;-87
2021/07/15 04:54:00;;;;;;;;;;;13.60;99.90;;;;;;4975058;28;20062;-86
2021/07/15 04:56:51;;;;;;;2.72;0.32;;;13.60;99.90;;;;;;4976221;28;19981;-86
2021/07/15 04:59:40;;;;;;;3.83;0.75;;;13.60;99.90;;;;;;4974604;28;20114;-86
2021/07/15 05:02:29;;;;;;;2.92;0.30;;;13.60;99.90;;;;;;4974953;28;20196;-84
2021/07/15 05:05:18;;;;;;;0.50;0.50;;;13.60;99.90;;;;;;4977483;28;20530;-85
2021/07/15 05:08:06;;;;;;;0.90;0.47;;;13.70;99.90;;;;;;4963220;28;20047;-86
2021/07/15 05:10:54;;;;;;;1.85;0.40;;;13.80;99.90;;;;;;4973221;28;20042;-85
2021/07/15 05:13:41;;;;;;;0.70;0.40;;;13.80;99.90;;;;;;4975669;28;20103;-85
2021/07/15 05:16:29;;;;;;;5.78;0.70;;;13.90;99.90;;;;;;4964996;28;20051;-86
2021/07/15 05:19:16;;;;;;;1.08;0.50;;;13.90;99.90;;;;;;4973187;28;20042;-87
2021/07/15 05:22:04;;;;;;;2.47;0.45;;;13.90;99.90;;;;;;4973675;28;20047;-84
2021/07/15 05:24:54;;;;;;;0.65;0.30;;;13.90;99.90;;;;;;4971983;28;20136;-85
2021/07/15 05:27:42;;;;;;;1.90;0.40;;;14.00;99.90;;;;;;4967613;28;20074;-85
2021/07/15 05:30:29;;;;;;;0.95;0.30;;;14.00;99.90;;;;;;4962487;28;20074;-87
2021/07/15 05:33:17;;;;;;;0.70;0.38;;;14.00;99.90;;;;;;4973710;28;20050;-88
2021/07/15 05:36:05;;;;;;;0.45;0.30;;;14.10;99.90;;;;;;4965748;28;20051;-90
2021/07/15 05:38:54;;;;;;;2.22;0.40;;;14.10;99.90;;;;;;4967824;28;20047;-89
2021/07/15 05:41:43;;;;;;;1.58;0.50;;;14.20;99.90;;;;;;4980440;28;20444;-88
2021/07/15 05:44:36;;;;;;;0.90;0.35;;;14.30;99.90;;;;;;4996088;28;20058;-87
2021/07/15 05:47:25;;;;;;;1.52;0.30;;;14.30;99.90;;;;;;4992220;28;20478;-88
2021/07/15 05:50:12;;;;;;;0.38;0.28;;;14.40;99.90;;;;;;4978008;28;20188;-91
2021/07/15 05:53:00;;;;;;;3.75;0.43;;;14.40;99.90;;;;;;4994138;28;20129;-89
2021/07/15 05:55:50;;;;;;;5.53;0.45;;;14.60;99.90;;;;;;4997555;28;20042;-91
2021/07/15 05:58:40;;;;;;;;;;;14.70;99.90;;;;;;4994185;28;20042;-86
2021/07/15 06:01:28;;;;;;;3.00;0.70;;;14.60;99.90;;;;;;4994173;28;20009;-89
2021/07/15 06:04:18;;;;;;;2.63;0.40;;;14.50;99.90;;;;;;5007438;28;20134;-88
2021/07/15 06:07:05;;;;;;;1.02;0.40;;;14.60;99.90;;;;;;4986568;28;20093;-89
2021/07/15 06:09:55;;;;;;;1.55;0.63;;;14.60;99.90;;;;;;4989870;28;20050;-89
2021/07/15 06:12:47;;;;;;;1.08;0.50;;;14.70;99.90;;;;;;4980852;28;20130;-89
2021/07/15 06:15:35;;;;;;;0.73;0.63;;;14.80;99.90;;;;;;4991502;28;20314;-85
2021/07/15 06:18:22;;;;;;;1.13;0.68;;;14.80;99.90;;;;;;4982211;28;20081;-91
2021/07/15 06:21:14;;;;;;;0.60;0.40;;;14.80;99.90;;;;;;4979589;28;20050;-91
2021/07/15 06:24:01;;;;;;;1.13;0.60;;;15.00;99.90;;;;;;4989812;28;20153;-89
2021/07/15 06:26:48;;;;;;;6.03;0.43;;;14.90;99.90;;;;;;4993488;28;20046;-88
2021/07/15 06:29:36;;;;;;;2.70;0.68;;;14.80;99.90;;;;;;4967962;28;20112;-90
2021/07/15 06:32:23;;;;;;;2.55;0.32;;;14.90;99.90;;;;;;4989349;28;20046;-91
2021/07/15 06:35:14;;;;;;;2.47;0.40;;;14.90;99.90;;;;;;4973282;28;20057;-91
2021/07/15 06:38:03;;;;;;;1.10;0.40;;;15.00;99.90;;;;;;4983749;28;20068;-91
2021/07/15 06:40:52;;;;;;;2.85;0.43;;;14.90;99.90;;;;;;4973872;28;20170;-89
2021/07/15 06:43:42;;;;;;;2.30;1.10;;;14.90;99.90;;;;;;4980771;28;20050;-88
2021/07/15 06:46:33;;;;;;;2.30;0.38;;;15.10;99.90;;;;;;4995941;28;20066;-90
2021/07/15 06:49:26;;;;;;;3.13;0.38;;;15.50;99.90;;;;;;4991306;28;20042;-88
2021/07/15 06:52:15;;;;;;;1.85;0.40;;;15.70;99.90;;;;;;4992323;28;20077;-88
2021/07/15 06:55:04;;;;;;;4.50;1.00;;;15.90;99.90;;;;;;4996086;28;20120;-89
2021/07/15 06:57:51;;;;;;;0.43;0.43;;;16.10;99.90;;;;;;4988621;28;20049;-89
2021/07/15 07:00:41;;;;;;;6.22;0.57;;;16.30;99.90;;;;;;4982330;28;20046;-91
2021/07/15 07:03:30;;;;;;;2.00;0.45;;;16.70;99.90;;;;;;4985207;28;20185;-89
2021/07/15 07:06:18;;;;;;;1.02;0.40;;;16.70;99.90;;;;;;4986469;28;20053;-88
2021/07/15 07:09:08;;;;;;;0.50;0.50;;;16.70;99.90;;;;;;4985142;28;20431;-91
2021/07/15 07:12:13;;;;;;;4.65;0.70;;;16.80;99.90;;;;;;4989497;28;20711;-90
2021/07/15 07:15:00;;;;;;;1.88;0.55;;;17.00;99.90;;;;;;4993352;28;20355;-90
2021/07/15 07:17:48;;;;;;;4.85;0.40;;;17.10;99.90;;;;;;4967958;28;20038;-90
2021/07/15 07:20:39;;;;;;;1.35;0.50;;;17.30;99.90;;;;;;4971930;28;20066;-91
2021/07/15 07:23:30;;;;;;;3.50;0.70;;;17.00;99.90;;;;;;4986030;28;20121;-90
2021/07/15 07:26:17;;;;;;;3.03;0.73;;;17.00;99.90;;;;;;4988815;28;20057;-90
2021/07/15 07:29:07;;;;;;;4.60;0.52;;;16.90;99.90;;;;;;4977525;28;20050;-91
2021/07/15 07:31:55;;;;;;;1.65;0.50;;;17.00;99.90;;;;;;5000970;28;20100;-88
2021/07/15 07:34:49;;;;;;;2.05;0.30;;;17.10;99.90;;;;;;5001117;28;20046;-91
2021/07/15 07:37:36;;;;;;;1.60;0.40;;;17.00;99.90;;;;;;4995593;28;20055;-87
2021/07/15 07:40:24;;;;;;;1.70;0.35;;;17.10;99.90;;;;;;5001716;28;20046;-90
2021/07/15 07:43:13;;;;;;;3.42;0.60;;;17.20;99.90;;;;;;4991348;28;20129;-89
2021/07/15 07:46:01;;;;;;;0.95;0.40;;;17.30;99.90;;;;;;4993064;28;20046;-91
2021/07/15 07:48:48;;;;;;;4.70;0.60;;;17.70;99.90;;;;;;4994302;28;20045;-89
2021/07/15 07:51:36;;;;;;;0.63;0.40;;;17.90;99.90;;;;;;4997236;28;20364;-87
2021/07/15 07:54:23;;;;;;;1.10;0.35;;;18.00;99.90;;;;;;4984459;28;20081;-89
2021/07/15 07:57:14;;;;;;;1.92;0.40;;;18.00;99.90;;;;;;4966095;28;20102;-91
2021/07/15 08:00:04;;;;;;;;;;;18.30;99.90;;;;;;4990522;28;20464;-89
2021/07/15 08:02:54;;;;;;;2.15;0.55;;;18.80;99.90;;;;;;4971545;28;19921;-90
2021/07/15 08:05:42;;;;;;;3.30;0.52;;;19.10;99.90;;;;;;4980564;28;20104;-89
2021/07/15 08:08:30;;;;;;;0.77;0.30;;;19.80;99.90;;;;;;4995624;28;20050;-91
2021/07/15 08:11:19;;;;;;;5.78;0.70;;;20.20;99.90;;;;;;4979734;28;20539;-90
2021/07/15 08:14:06;;;;;;;3.13;0.40;;;19.90;99.90;;;;;;4981890;28;20097;-90
2021/07/15 08:16:54;;;;;;;1.98;0.43;;;19.20;99.90;;;;;;4998276;28;20042;-90
2021/07/15 08:19:43;;;;;;;2.70;0.50;;;18.90;99.90;;;;;;4981892;28;20116;-89
2021/07/15 08:32:01;;;;;;;1.65;0.32;;;18.10;99.90;;;;;;4986412;28;20075;-88
2021/07/15 08:34:55;;;;;;;4.15;0.60;;;17.90;99.90;;;;;;4989869;28;20043;-89
2021/07/15 08:37:43;;;;;;;4.18;0.50;;;17.60;99.90;;;;;;4980767;28;20054;-91
2021/07/15 08:40:30;;;;;;;2.55;0.57;;;17.30;99.90;;;;;;4993134;28;20047;-88
2021/07/15 08:43:18;;;;;;;3.78;0.63;;;17.10;99.90;;;;;;4979000;28;20124;-86
2021/07/15 08:46:17;;;;;;;4.35;0.75;;;16.90;99.90;;;;;;4996407;28;20050;-89
2021/07/15 08:49:05;;;;;;;2.15;0.60;;;16.80;99.90;;;;;;4989307;28;20460;-88
2021/07/15 08:51:53;;;;;;;4.82;0.75;;;16.70;99.90;;;;;;4999644;28;20046;-89
2021/07/15 08:57:49;;;;;;;3.38;0.50;;;17.20;99.90;;;;;;4987433;28;20061;-89
2021/07/15 09:00:40;;;;;;;2.70;0.60;;;17.60;99.90;;;;;;4996300;28;20141;-89
2021/07/15 09:03:27;;;;;;;2.97;0.57;;;18.10;99.90;;;;;;4995280;28;20050;-89
2021/07/15 09:06:15;;;;;;;2.95;0.65;;;18.50;99.90;;;;;;4969518;28;20176;-89
2021/07/15 09:09:05;;;;;;;3.17;0.50;;;19.00;99.90;;;;;;4982329;28;20042;-91
2021/07/15 09:11:52;;;;;;;2.15;0.50;;;19.50;99.90;;;;;;4992730;28;20057;-89
2021/07/15 09:14:54;;;;;;;3.45;0.50;;;19.70;99.90;;;;;;4975427;28;20042;-88
2021/07/15 09:17:42;;;;;;;5.70;0.50;;;20.00;99.90;;;;;;4993351;28;20046;-91
2021/07/15 09:20:30;;;;;;;2.80;1.15;;;20.50;99.90;;;;;;4994292;28;20085;-89
2021/07/15 09:23:19;;;;;;;1.70;1.20;;;20.90;99.90;;;;;;4979982;28;20543;-91
2021/07/15 09:26:07;;;;;;;2.30;0.40;;;20.90;99.90;;;;;;4990217;28;20043;-90
2021/07/15 09:28:56;;;;;;;3.15;0.57;;;20.90;99.90;;;;;;4982852;28;20050;-89
2021/07/15 09:32:31;;;;;;;1.90;0.50;;;20.90;99.90;;;;;;4995628;28;20053;-89
2021/07/15 09:36:17;;;;;;;2.33;0.60;;;21.00;99.90;;;;;;4934476;29;20066;-89
2021/07/15 09:48:59;;;;;;;2.67;0.40;;;22.90;99.90;;;;;;4914454;29;20047;-90
2021/07/15 10:00:43;;;;;;;2.05;0.22;;;21.20;99.90;;;;;;4895067;29;20049;-89
2021/07/15 10:03:39;;;;;;;2.80;0.30;;;20.00;99.90;;;;;;4880862;29;20151;-89
2021/07/15 10:06:45;;;;;;;0.30;0.30;;;19.60;99.90;;;;;;4969051;28;20068;-87
2021/07/15 10:09:35;;;;;;;0.55;0.30;;;19.60;99.90;;;;;;4965494;28;20444;-87
2021/07/15 10:12:26;;;;;;;0.80;0.70;;;19.50;99.90;;;;;;4972839;28;20122;-87
2021/07/15 10:15:14;;;;;;;2.85;2.28;;;19.50;99.90;;;;;;4954359;28;20453;-86
2021/07/15 10:18:02;;;;;;;2.40;1.00;;;19.90;99.90;;;;;;4973970;28;20066;-86
2021/07/15 10:20:54;;;;;;;0.77;0.40;;;20.70;99.90;;;;;;4974306;28;20181;-87
2021/07/15 10:23:44;;;;;;;0.47;0.30;;;22.50;99.90;;;;;;4969211;28;20121;-88
2021/07/15 10:26:47;;;;;;;2.85;0.30;;;23.90;99.90;;;;;;4972740;28;20050;-87
2021/07/15 10:29:35;;;;;;;0.35;0.20;;;24.20;99.90;;;;;;4975299;28;20050;-87
2021/07/15 10:32:23;;;;;;;0.30;0.20;;;23.10;99.90;;;;;;4975127;28;20055;-88
2021/07/15 10:56:17;;;;;;;1.48;0.30;;;22.60;99.90;;;;;;4956412;28;20034;-89
2021/07/15 10:59:31;;;;;;;0.17;0.17;;;22.60;99.90;;;;;;4923817;28;20467;-89
2021/07/15 11:02:45;;;;;;;0.20;0.20;;;23.00;99.90;;;;;;4990927;28;21035;-90
2021/07/15 11:05:46;;;;;;;0.28;0.22;;;23.10;99.90;;;;;;4993670;28;20069;-90
2021/07/15 11:08:51;;;;;;;0.30;0.13;;;23.30;99.90;;;;;;4984981;28;20034;-91
2021/07/15 11:11:42;;;;;;;0.28;0.20;;;23.70;99.90;;;;;;4994232;28;20164;-90
2021/07/15 11:14:44;;;;;;;0.20;0.20;;;23.90;99.90;;;;;;4996138;28;20136;-93
2021/07/15 11:17:34;;;;;;;0.90;0.20;;;24.30;99.90;;;;;;4993833;28;20046;-90
2021/07/15 11:20:30;;;;;;;0.43;0.20;;;23.90;99.90;;;;;;4992738;28;20054;-92
2021/07/15 11:23:19;;;;;;;0.10;0.10;;;23.90;99.90;;;;;;4994363;28;20042;-92
2021/07/15 11:26:28;;;;;;;0.22;0.20;;;23.70;99.90;;;;;;4995958;28;20042;-90
2021/07/15 11:29:17;;;;;;;0.90;0.30;;;23.70;99.90;;;;;;4985288;28;20114;-91
2021/07/15 11:32:24;;;;;;;1.88;0.20;;;23.80;99.90;;;;;;4992841;28;20042;-91
2021/07/15 11:35:22;;;;;;;0.30;0.30;;;23.90;99.90;;;;;;4994344;28;20081;-92
2021/07/15 11:38:12;;;;;;;2.38;0.40;;;24.50;95.70;;;;;;4992972;28;20050;-90
2021/07/15 11:41:08;;;;;;;0.82;0.35;;;24.60;99.70;;;;;;4992981;28;20064;-91
2021/07/15 11:44:06;;;;;;;1.67;0.25;;;25.00;97.80;;;;;;4994420;28;20061;-91
2021/07/15 11:46:54;;;;;;;0.20;0.20;;;25.70;94.10;;;;;;4994164;28;20136;-90
2021/07/15 11:49:42;;;;;;;0.75;0.75;;;25.60;94.70;;;;;;4977656;28;20129;-91
2021/07/15 11:52:31;;;;;;;0.60;0.40;;;24.90;95.60;;;;;;4977264;28;20062;-92
2021/07/15 11:55:18;;;;;;;2.25;0.40;;;24.40;96.60;;;;;;4969025;28;20050;-92
2021/07/15 11:58:31;;;;;;;1.85;0.40;;;23.60;99.40;;;;;;4981045;28;20169;-91
2021/07/15 12:01:42;;;;;;;0.50;0.50;;;23.20;99.40;;;;;;4982204;28;20468;-91
2021/07/15 12:05:03;;;;;;;0.63;0.45;;;23.00;99.90;;;;;;4979456;28;20050;-93
2021/07/15 12:08:15;;;;;;;0.57;0.57;;;22.60;99.90;;;;;;4989789;28;20046;-90
2021/07/15 12:11:03;;;;;;;2.08;0.52;;;22.60;99.90;;;;;;4983467;28;20050;-91
2021/07/15 12:14:01;;;;;;;0.30;0.30;;;22.50;99.90;;;;;;4994127;28;20050;-91
2021/07/15 12:16:51;;;;;;;0.57;0.50;;;22.30;99.90;;;;;;4993614;28;20050;-92
2021/07/15 12:19:53;;;;;;;0.60;0.60;;;21.80;99.90;;;;;;4993307;28;20046;-91
2021/07/15 12:22:57;;;;;;;0.85;0.60;;;21.20;99.90;;;;;;4986466;28;20046;-91
2021/07/15 12:25:48;;;;;;;2.28;0.60;;;20.50;99.90;;;;;;4973862;28;20176;-91
2021/07/15 12:28:35;;;;;;;0.60;0.60;;;20.20;99.90;;;;;;4981940;28;20042;-90
2021/07/15 12:31:25;;;;;;;0.57;0.50;;;20.00;99.90;;;;;;4993560;28;20054;-91
2021/07/15 12:34:12;;;;;;;0.60;0.60;;;20.00;99.90;;;;;;4967179;28;20104;-91
2021/07/15 12:45:57;;;;;;;0.85;0.73;;;19.50;99.90;;;;;;4992063;28;20121;-93
2021/07/15 12:53:37;;;;;;;4.97;0.93;;;19.10;99.90;;;;;;4911857;29;20091;-92
2021/07/15 12:57:10;;;;;;;0.82;0.70;;;19.50;99.90;;;;;;4869907;29;20057;-91
2021/07/15 13:44:18;;;;;;;2.83;0.80;;;22.70;99.90;;;;;;4994580;28;20046;-88
2021/07/15 13:47:11;;;;;;;0.90;0.63;;;22.30;99.90;;;;;;4967766;28;20495;-90
2021/07/15 13:50:08;;;;;;;2.28;0.73;;;22.30;99.90;;;;;;4982889;28;20050;-91
2021/07/15 13:52:57;;;;;;;1.55;0.80;;;22.30;99.90;;;;;;4980777;28;20050;-88
2021/07/15 13:55:46;;;;;;;1.67;0.70;;;22.50;99.90;;;;;;5001396;28;20038;-89
2021/07/15 13:58:33;;;;;;;0.90;0.90;;;22.50;99.90;;;;;;5000871;28;20058;-90
2021/07/15 14:01:25;;;;;;;1.38;1.02;;;22.30;99.90;;;;;;4999709;28;20145;-92
2021/07/15 14:04:13;;;;;;;3.78;0.88;;;22.30;99.90;;;;;;4981568;28;20053;-90
2021/07/15 14:07:02;;;;;;;0.77;0.77;;;22.60;99.90;;;;;;4977287;28;20487;-90
2021/07/15 14:09:49;;;;;;;0.90;0.90;;;22.50;99.90;;;;;;4995056;28;20049;-92
2021/07/15 14:12:39;;;;;;;2.65;1.08;;;22.80;99.90;;;;;;4983304;28;20062;-90
2021/07/15 14:15:29;;;;;;;2.10;1.10;;;22.90;99.90;;;;;;4994623;28;20575;-90
2021/07/15 14:18:23;;;;;;;0.98;0.93;;;22.90;99.90;;;;;;4993731;28;20050;-89
2021/07/15 14:21:12;;;;;;;1.05;0.70;;;22.90;99.90;;;;;;4993419;28;20074;-90
2021/07/15 14:23:59;;;;;;;4.10;0.80;;;23.10;99.90;;;;;;4990665;28;20473;-90
2021/07/15 14:26:55;;;;;;;3.28;0.90;;;23.00;99.90;;;;;;4994875;28;20173;-90
2021/07/15 14:29:44;;;;;;;1.88;0.70;;;22.80;99.50;;;;;;4994194;28;20379;-90
2021/07/15 14:32:31;;;;;;;1.23;0.90;;;22.60;99.90;;;;;;4992569;28;20071;-90
2021/07/15 14:35:21;;;;;;;1.30;0.68;;;22.30;99.90;;;;;;4994127;28;20461;-93
2021/07/15 14:38:15;;;;;;;2.25;1.00;;;22.30;99.90;;;;;;4995655;28;20100;-90
2021/07/15 14:41:03;;;;;;;0.73;0.73;;;22.10;99.90;;;;;;4987043;28;20061;-89
2021/07/15 14:43:50;;;;;;;2.20;1.00;;;22.00;99.90;;;;;;4980574;28;20050;-90
2021/07/15 14:46:38;;;;;;;1.85;1.10;;;22.10;99.90;;;;;;4979298;28;20039;-90
2021/07/15 14:49:27;;;;;;;0.73;0.70;;;22.50;99.90;;;;;;4992291;28;20049;-91
2021/07/15 14:52:17;;;;;;;0.70;0.70;;;22.60;99.90;;;;;;4984574;28;20156;-91
2021/07/15 14:55:06;;;;;;;0.70;0.63;;;22.80;99.90;;;;;;4993300;28;20108;-92
2021/07/15 14:57:55;;;;;;;0.80;0.80;;;22.70;99.90;;;;;;4989951;28;20139;-91
2021/07/15 15:00:45;;;;;;;1.08;1.02;;;22.60;99.90;;;;;;4994592;28;20053;-91
2021/07/15 15:03:35;;;;;;;2.50;0.70;;;22.60;99.90;;;;;;4978875;28;20119;-90
2021/07/15 15:06:23;;;;;;;0.60;0.60;;;22.70;99.90;;;;;;4989197;28;20216;-91
2021/07/15 15:09:12;;;;;;;1.77;0.77;;;22.80;99.90;;;;;;4989192;28;20041;-89
2021/07/15 15:11:59;;;;;;;1.48;0.70;;;22.60;99.90;;;;;;4974094;28;20121;-88
2021/07/15 15:14:53;;;;;;;0.77;0.70;;;22.80;99.90;;;;;;4992914;28;20145;-88
2021/07/15 15:17:44;;;;;;;0.60;0.60;;;23.30;99.50;;;;;;4994464;28;20042;-87
2021/07/15 15:20:32;;;;;;;1.13;0.77;;;23.50;99.90;;;;;;4979787;28;20391;-89
2021/07/15 15:23:20;;;;;;;1.65;1.55;;;23.60;97.40;;;;;;4990269;28;20042;-88
2021/07/15 15:26:11;;;;;;;0.70;0.70;;;23.50;97.10;;;;;;4992672;28;20053;-87
2021/07/15 15:29:01;;;;;;;1.05;0.90;;;23.10;97.80;;;;;;4986800;28;20051;-87
2021/07/15 15:31:48;;;;;;;1.42;0.68;;;23.00;99.20;;;;;;4978590;28;20347;-85
2021/07/15 15:34:36;;;;;;;0.85;0.73;;;22.60;99.90;;;;;;4992111;28;20074;-86
2021/07/15 15:37:23;;;;;;;2.20;1.00;;;22.30;99.90;;;;;;4994070;28;20054;-85
2021/07/15 15:40:13;;;;;;;2.40;1.15;;;22.20;99.90;;;;;;4991193;28;20058;-85
2021/07/15 15:43:03;;;;;;;0.80;0.80;;;22.00;99.90;;;;;;4990941;28;20058;-90
2021/07/15 15:45:53;;;;;;;2.15;1.13;;;21.80;99.90;;;;;;4993428;28;20050;-90
2021/07/15 15:48:44;;;;;;;2.20;0.90;;;21.70;99.90;;;;;;4990581;28;20098;-90
2021/07/15 15:51:34;;;;;;;1.55;0.95;;;21.50;99.90;;;;;;4989075;28;20475;-89
2021/07/15 15:54:22;;;;;;;1.65;1.00;;;21.30;99.90;;;;;;4975904;28;20054;-89
2021/07/15 15:57:10;;;;;;;1.85;0.75;;;21.30;99.90;;;;;;4990363;28;20049;-89
2021/07/15 15:59:57;;;;;;;1.05;0.90;;;21.40;99.90;;;;;;4992227;28;20180;-89
2021/07/15 16:02:45;;;;;;;1.70;1.00;;;21.60;99.90;;;;;;4983507;28;20045;-89
2021/07/15 16:05:32;;;;;;;3.25;1.00;;;21.70;99.90;;;;;;4979404;28;20138;-88
2021/07/15 16:08:20;;;;;;;1.08;0.90;;;21.60;99.90;;;;;;4989624;28;20457;-88
2021/07/15 16:11:07;;;;;;;1.00;1.00;;;21.80;99.90;;;;;;4996077;28;20150;-89
2021/07/15 16:13:55;;;;;;;1.00;0.88;;;21.80;99.90;;;;;;4997830;28;20121;-87
2021/07/15 16:16:42;;;;;;;1.15;1.05;;;21.90;99.90;;;;;;4999678;28;20089;-90
2021/07/15 16:19:30;;;;;;;1.58;0.80;;;22.30;99.90;;;;;;4994170;28;20553;-91
2021/07/15 16:22:17;;;;;;;1.20;1.17;;;23.10;99.90;;;;;;4991900;28;20484;-93
2021/07/15 16:25:20;;;;;;;2.35;1.00;;;23.70;99.90;;;;;;4907658;29;20157;-90
2021/07/15 16:29:20;;;;;;;;;;;;;;;;;;;;;
2021/07/15 16:32:26;;;;;;;6.05;3.20;;;23.70;99.60;;;;;;4812605;29;20126;-88
2021/07/15 16:35:16;;;;;;;1.80;1.10;;;23.40;99.90;;;;;;4844460;29;20224;-89
2021/07/15 16:38:04;;;;;;;1.40;1.30;;;23.10;99.90;;;;;;4912773;29;20054;-90
2021/07/15 16:40:51;;;;;;;4.35;1.10;;;22.90;99.90;;;;;;4889185;29;20056;-89
2021/07/15 16:43:38;;;;;;;1.30;1.20;;;22.70;99.90;;;;;;4915767;29;20052;-91
2021/07/15 16:46:25;;;;;;;1.73;1.20;;;22.30;99.90;;;;;;4906108;29;20750;-91
2021/07/15 16:49:13;;;;;;;2.63;1.40;;;22.20;99.90;;;;;;4920122;28;20135;-90
2021/07/15 16:52:00;;;;;;;1.70;1.40;;;22.10;99.90;;;;;;4919985;29;20052;-89
2021/07/15 16:54:49;;;;;;;1.52;1.40;;;22.00;99.90;;;;;;4918583;28;20490;-88
2021/07/15 16:57:37;;;;;;;0.95;0.95;;;21.90;99.90;;;;;;4918147;29;20537;-91
2021/07/15 17:00:25;;;;;;;1.40;1.25;;;21.80;99.90;;;;;;4917008;29;20285;-91
2021/07/15 17:03:29;;;;;;;2.05;1.00;;;21.60;99.90;;;;;;4993739;28;20169;-90
2021/07/15 17:06:17;;;;;;;0.90;0.90;;;21.30;99.90;;;;;;4996613;28;20042;-91
2021/07/15 17:09:04;;;;;;;1.98;1.10;;;21.10;99.90;;;;;;4996558;28;20053;-89